General Aviation Weather

Text Reports

Enter one or more of the following location identifiers separated by a space:

Zip Code, Four-Character ICAO or Three-Character IATA airport codes.

METAR - Aviation Routine Weather Report
LFRQ - Quimper,
Updated at 8:00 AM GMT on April 01, 2015 (10:00 AM CEST):
METAR LFRQ 010800Z AUTO 32008KT 290V350 9999 NSC 09/04 Q1033
TAF - Terminal Area Forecast
LFRQ - Quimper,
Updated at 8:00 AM GMT on April 01, 2015 (10:00 AM CEST):
No TAF is currently available for this location.
Decoded:
No decoded TAF is available.
PIREP - Pilot Weather Report
LFRQ - Quimper,
Updated at 8:00 AM GMT on April 01, 2015 (10:00 AM CEST):
No PIREP is currently available for this location.
AIRMET - Airmens Meteorological Information
LFRQ - Quimper,
Updated at 8:00 AM GMT on April 01, 2015 (10:00 AM CEST):
No AIRMET is currently available for this location.
SIGMET - Significant Meteorological Information
LFRQ - Quimper,
Updated at 8:00 AM GMT on April 01, 2015 (10:00 AM CEST):
No SIGMET is currently available for this location.
NOTAM - Notice to Airmen
LFRQ - Quimper,
Updated at 8:00 AM GMT on April 01, 2015 (10:00 AM CEST):
No NOTAM is currently available for this location.
Forecast Area
LFRQ - Quimper,
Updated at 8:00 AM GMT on April 01, 2015 (10:00 AM CEST):
No NOTAM is currently available for this location.
Aviation Weather Maps